Date,TemperatureHighF,TemperatureAvgF,TemperatureLowF,DewpointHighF,DewpointAvgF,DewpointLowF,HumidityHigh,HumidityAvg,HumidityLow,PressureMaxIn,PressureMinIn,WindSpeedMaxMPH,WindSpeedAvgMPH,GustSpeedMaxMPH,PrecipitationSumIn
2013-1-1,22,22,22,-100,-100,-100,0,0,100,29.99,29.99,28,28,0,0.00
2013-1-2,22,22,22,-100,-100,-100,0,0,100,29.99,29.99,28,28,0,0.00
2013-1-6,24,24,24,-100,-100,-100,0,0,100,30.13,30.13,18,18,0,0.00
2013-1-7,32,32,32,-100,-100,-100,0,0,100,30.00,30.00,32,32,0,0.00
2013-1-8,32,32,32,-100,-100,-100,0,0,100,30.00,30.00,32,32,0,0.00
2013-1-9,39,39,39,-100,-100,-100,0,0,100,30.22,30.22,23,23,0,0.00
2013-1-11,39,39,39,-100,-100,-100,0,0,100,30.20,30.20,36,36,0,0.00
2013-3-27,32,32,32,-100,-100,-100,0,0,100,30.24,30.24,21,21,0,0.00
2013-4-2,29,29,29,-100,-100,-100,0,0,100,30.21,30.21,25,25,0,0.00
2013-4-3,31,27,24,-100,-100,-100,0,0,100,30.33,30.31,21,15,0,0.00
2013-4-4,38,35,32,-100,-100,-100,0,0,100,29.97,29.95,44,27,0,0.00
2013-4-5,38,38,37,-100,-100,-100,0,0,100,30.21,30.06,17,14,0,0.00
2013-4-6,41,36,35,-100,-100,-100,0,0,100,30.17,29.74,25,21,0,0.00
2013-4-7,32,18,32,-100,-100,-100,0,0,100,29.97,29.97,29,22,0,0.00
2013-4-8,33,32,31,-100,-100,-100,0,0,100,29.97,29.88,17,13,0,0.00
2013-4-9,33,33,33,-100,-100,-100,0,0,100,30.21,30.21,21,17,0,0.00
2013-4-10,32,32,32,-100,-100,-100,0,0,100,30.21,30.21,11,8,0,0.00
2013-4-11,32,30,28,-100,-100,-100,0,0,100,30.00,29.97,47,42,0,0.00
2013-4-12,31,28,26,-100,-100,-100,0,0,100,29.88,29.71,50,30,0,0.00
2013-4-13,37,34,32,-100,-100,-100,0,0,100,29.92,29.79,25,18,0,0.00
2013-4-14,35,34,33,-100,-100,-100,0,0,100,30.03,30.00,22,15,0,0.00
2013-4-15,37,35,34,-100,-100,-100,0,0,100,29.92,29.80,48,34,0,0.00
2013-4-16,36,35,34,-100,-100,-100,0,0,100,29.81,29.81,30,21,0,0.00
2013-4-17,34,34,34,-100,-100,-100,0,0,100,30.39,30.39,17,17,0,0.00
2013-4-18,32,31,30,-100,-100,-100,0,0,100,29.88,29.74,28,24,0,0.00
2013-4-19,32,30,29,-100,-100,-100,0,0,100,29.49,29.23,59,38,0,0.00
2013-4-20,36,27,23,-100,-100,-100,0,0,100,30.33,29.69,23,22,0,0.00
2013-4-21,31,31,31,-100,-100,-100,0,0,100,30.42,30.42,3,3,0,0.00
2013-4-22,37,37,37,-100,-100,-100,0,0,100,30.39,30.39,15,15,0,0.00
2013-4-23,37,34,32,-100,-100,-100,0,0,100,29.88,29.82,36,20,0,0.00
2013-4-24,34,33,32,-100,-100,-100,0,0,100,29.97,29.97,11,11,0,0.00
2013-4-25,36,34,33,-100,-100,-100,0,0,100,30.12,30.09,17,14,0,0.00
2013-4-26,39,36,35,-100,-100,-100,0,0,100,30.21,30.16,29,18,0,0.00
2013-4-27,40,40,39,-100,-100,-100,0,0,100,30.30,30.21,32,25,0,0.00
2013-4-28,41,41,41,-100,-100,-100,0,0,100,29.94,29.94,16,16,0,0.00
2013-4-29,48,44,40,-100,-100,-100,0,0,100,29.90,29.80,18,14,0,0.00
2013-4-30,48,42,37,-100,-100,-100,0,0,100,29.70,29.49,22,18,0,0.00
2013-5-1,39,38,35,-100,-100,-100,0,0,100,30.23,22.97,16,15,0,0.00
2013-5-2,36,18,36,37,-32,-100,0,0,100,30.24,30.24,21,19,0,0.00
2013-5-4,45,44,44,-100,-100,-100,0,0,100,30.19,30.15,11,6,0,0.00
2013-5-5,38,38,38,-100,-100,-100,0,0,100,0.00,40.00,11,11,0,0.00
2013-5-6,36,36,36,-100,-100,-100,0,0,100,30.06,30.06,8,8,0,0.00
2013-5-7,40,40,39,-100,-100,-100,0,0,100,30.09,30.05,9,3,0,0.00
2013-5-8,51,51,51,-100,-100,-100,0,0,100,30.09,30.09,0,0,0,0.00
2013-5-9,43,43,43,-100,-100,-100,0,0,100,29.97,29.97,0,0,0,0.00
2013-5-10,44,39,36,-100,-100,-100,0,0,100,30.00,30.00,24,17,0,0.00
2013-5-11,37,37,37,-100,-100,-100,0,0,100,29.91,29.91,15,15,0,0.00
2013-5-12,38,35,32,-100,-100,-100,0,0,100,30.10,13.98,43,32,0,0.00
2013-5-13,40,40,40,-100,-100,-100,0,0,100,30.15,30.15,18,18,0,0.00
2013-5-15,57,57,57,-100,-100,-100,0,0,100,27.50,27.50,10,10,0,0.00
2013-5-16,41,39,38,-100,-100,-100,0,0,100,30.09,29.91,21,18,0,0.00
2013-5-18,41,39,37,-100,-100,-100,0,0,100,30.03,30.00,18,18,0,0.00
2013-5-19,104,104,104,-100,-100,-100,0,0,100,29.94,29.94,9,9,0,0.00
2013-5-22,47,47,47,-100,-100,-100,0,0,100,29.85,29.85,23,23,0,0.00
2013-5-23,38,36,34,-100,-100,-100,0,0,100,30.30,30.12,29,17,0,0.00
2013-5-25,40,40,40,-100,-100,-100,0,0,100,0.00,40.00,0,0,0,0.00
2013-5-26,44,44,44,-100,-100,-100,0,0,100,30.22,30.22,10,10,0,0.00
2013-5-28,45,44,43,-100,-100,-100,0,0,100,29.85,29.80,14,12,0,0.00
2013-5-31,60,60,60,-100,-100,-100,0,0,100,29.80,29.80,14,14,0,0.00
2013-6-2,55,49,46,-100,-100,-100,0,0,100,29.90,29.70,16,11,0,0.00
2013-6-3,52,48,45,-100,-100,-100,0,0,100,30.12,30.01,13,10,0,0.00
2013-6-4,60,60,60,-100,-100,-100,0,0,100,30.19,30.19,0,0,0,0.00
2013-6-5,59,54,50,-100,-100,-100,0,0,100,30.12,30.11,21,19,0,0.00
2013-6-6,43,43,43,-100,-100,-100,0,0,100,30.03,30.03,17,17,0,0.00
2013-6-7,55,46,42,-100,-100,-100,0,0,100,30.08,30.03,10,7,0,0.00
2013-6-8,55,50,45,-100,-100,-100,0,0,100,30.07,30.00,15,14,0,0.00
2013-6-9,64,57,50,-100,-100,-100,0,0,100,30.12,30.02,10,9,0,0.00
2013-6-10,58,53,50,-100,-100,-100,0,0,100,30.02,29.82,22,21,0,0.00
2013-6-11,54,54,54,-100,-100,-100,0,0,100,29.88,29.88,2,2,0,0.00
2013-6-12,54,53,52,-100,-100,-100,0,0,100,29.97,29.80,9,8,0,0.00
2013-6-13,48,48,48,-100,-100,-100,0,0,100,29.98,29.98,9,9,0,0.00
2013-6-15,47,47,47,-100,-100,-100,0,0,100,29.98,29.98,18,18,0,0.00
2013-6-17,78,78,78,-100,-100,-100,0,0,100,29.89,29.89,14,14,0,0.00
2013-6-18,54,54,54,-100,-100,-100,0,0,100,30.12,30.12,13,13,0,0.00
2013-6-19,63,61,60,-100,-100,-100,0,0,100,30.15,29.98,15,11,0,0.00
2013-6-24,66,66,66,-100,-100,-100,0,0,100,29.97,29.97,12,12,0,0.00
2013-6-25,62,62,62,-100,-100,-100,0,0,100,29.89,29.89,16,16,0,0.00
2013-6-26,62,58,56,-100,-100,-100,0,0,100,29.79,29.78,17,9,0,0.00
2013-6-27,54,54,54,-100,-100,-100,0,0,100,29.40,29.40,0,0,0,0.00
2013-6-28,60,60,60,-100,-100,-100,0,0,100,29.70,29.70,15,15,0,0.00
2013-6-29,64,64,64,-100,-100,-100,0,0,100,29.60,29.60,15,15,0,0.00
2013-7-1,62,62,62,-100,-100,-100,0,0,100,29.99,29.99,17,17,0,0.00
2013-7-2,59,54,47,-100,-100,-100,0,0,100,30.21,30.19,13,9,0,0.00
2013-7-3,58,53,52,-100,-100,-100,0,0,100,30.10,30.00,23,4,0,0.00
2013-7-4,68,66,63,-100,-100,-100,0,0,100,30.08,30.02,18,18,0,0.00
2013-7-6,69,69,69,-100,-100,-100,0,0,100,30.03,30.03,15,15,0,0.00
2013-7-7,75,71,50,-100,-100,-100,0,0,100,30.00,29.92,6,6,0,0.00
2013-7-8,52,52,52,-100,-100,-100,0,0,100,29.96,29.96,16,16,0,0.00
2013-7-9,56,56,56,-100,-100,-100,0,0,100,29.79,29.79,16,16,0,0.00
2013-7-10,67,67,67,-100,-100,-100,0,0,100,29.92,29.92,16,16,0,0.00
2013-7-12,71,71,71,-100,-100,-100,0,0,100,30.14,30.14,18,18,0,0.00
2013-7-14,-200,0,200,-100,-100,-100,0,0,100,30.21,30.21,0,0,0,0.00
2013-7-15,67,67,67,-100,-100,-100,0,0,100,30.21,30.21,14,14,0,0.00
2013-7-16,60,60,60,-100,-100,-100,0,0,100,30.21,30.21,25,25,0,0.00
2013-7-17,74,74,74,-100,-100,-100,0,0,100,30.15,30.15,16,16,0,0.00
2013-7-20,72,72,72,-100,-100,-100,0,0,100,29.85,29.85,24,24,0,0.00
2013-7-21,68,63,60,-100,-100,-100,0,0,100,30.02,29.98,9,8,0,0.00
2013-7-22,54,54,54,-100,-100,-100,0,0,100,29.88,29.88,10,10,0,0.00
2013-7-23,60,57,54,-100,-100,-100,0,0,100,29.96,29.82,22,21,0,0.00
2013-7-24,68,63,58,-100,-100,-100,0,0,100,30.09,30.03,14,7,0,0.00
2013-7-27,62,58,47,-100,-100,-100,0,0,100,29.89,29.87,12,11,0,0.00
2013-7-28,60,47,44,-100,-100,-100,0,0,100,29.93,29.84,15,12,0,0.00
2013-7-29,55,55,55,-100,-100,-100,0,0,100,30.12,30.12,6,6,0,0.00
2013-7-30,68,61,57,-100,-100,-100,0,0,100,30.14,30.12,16,13,0,0.00
2013-7-31,64,64,64,-100,-100,-100,0,0,100,30.10,30.10,9,9,0,0.00
2013-8-1,70,70,70,-100,-100,-100,0,0,100,29.96,29.96,16,16,0,0.00
2013-8-2,76,76,76,-100,-100,-100,0,0,100,29.98,29.98,17,17,0,0.00
2013-8-3,64,60,59,-100,-100,-100,0,0,100,29.94,29.90,21,19,0,0.00
2013-8-4,64,58,51,-100,-100,-100,0,0,100,30.16,30.13,17,12,0,0.00
2013-8-5,58,58,58,-100,-100,-100,0,0,100,29.88,29.88,6,6,0,0.00
2013-8-30,74,74,74,-100,-100,-100,0,0,100,29.85,29.85,25,25,0,0.00
2013-9-1,70,70,70,-100,-100,-100,0,0,100,0.00,40.00,7,7,0,0.00
2013-9-7,66,66,66,-100,-100,-100,0,0,100,30.00,30.00,9,9,0,0.00
2013-9-8,64,61,60,-100,-100,-100,0,0,100,30.15,30.06,15,10,0,0.00
2013-9-9,62,44,62,-100,-100,-100,0,0,100,29.94,29.80,21,17,0,0.00
2013-9-10,74,67,55,-100,-100,-100,0,0,100,29.88,29.88,23,18,0,0.00
2013-9-11,57,28,57,-100,-100,-100,0,0,100,29.91,8.97,5,4,0,0.00
2013-9-12,64,64,63,-100,-100,-100,0,0,100,30.06,9.98,18,16,0,0.00
2013-9-13,62,43,54,-100,-100,-100,0,0,100,30.18,16.97,32,24,0,0.00
2013-9-14,66,64,61,-100,-100,-100,0,0,100,30.15,30.09,21,16,0,0.00
2013-9-15,68,59,50,-100,-100,-100,0,0,100,30.18,30.03,21,15,0,0.00
2013-9-16,52,52,52,-100,-100,-100,0,0,100,30.03,30.03,7,7,0,0.00
2013-9-17,59,57,53,-100,-100,-100,0,0,100,30.24,30.12,20,13,0,0.00
2013-9-18,58,58,58,-100,-100,-100,0,0,100,29.91,29.91,6,6,0,0.00
2013-9-19,63,61,59,-100,-100,-100,0,0,100,29.91,29.88,22,18,0,0.00
2013-9-20,66,66,66,-100,-100,-100,0,0,100,29.88,29.88,29,28,0,0.00
2013-9-21,59,59,59,-100,-100,-100,0,0,100,29.85,29.85,23,23,0,0.00
2013-9-22,53,40,53,50,-62,-100,0,0,100,30.09,29.88,29,24,0,0.00
2013-9-23,64,64,64,-100,-100,-100,0,0,100,30.00,30.00,16,16,0,0.00
2013-9-24,58,56,55,-100,-100,-100,0,0,100,30.03,30.00,15,12,0,0.00
2013-9-25,67,62,57,-100,-100,-100,0,0,100,30.03,30.00,6,4,0,0.00
2013-9-27,67,67,67,-100,-100,-100,0,0,100,30.12,30.12,15,12,0,0.00
2013-9-28,67,66,62,-100,-100,-100,0,0,100,30.12,30.03,23,21,0,0.00
2013-9-29,58,58,58,-100,-100,-100,0,0,100,30.03,30.03,7,7,0,0.00
2013-9-30,59,59,59,-100,-100,-100,0,0,100,0.00,40.00,10,10,0,0.00
2013-10-1,68,68,68,-100,-100,-100,0,0,100,30.03,30.03,9,9,0,0.00
2013-10-2,64,63,61,-100,-100,-100,0,0,100,30.06,30.06,16,12,0,0.00
2013-10-3,59,58,58,-100,-100,-100,0,0,100,30.06,30.06,16,13,0,0.00
2013-10-4,54,54,54,-100,-100,-100,0,0,100,30.06,30.06,21,21,0,0.00
2013-10-5,50,33,49,-100,-100,-100,0,0,100,30.03,29.97,39,36,0,0.00
2013-10-6,57,53,49,-100,-100,-100,0,0,100,30.06,29.65,40,22,0,0.00
2013-10-7,55,33,55,57,-37,-100,0,0,100,29.68,29.65,30,25,0,0.00
2013-10-10,56,56,56,-100,-100,-100,0,0,100,30.09,30.09,16,16,0,0.00
2013-10-11,55,55,55,-100,-100,-100,0,0,100,29.97,29.97,14,14,0,0.00
2013-10-12,56,50,54,-100,-100,-100,0,0,100,29.94,29.74,21,15,0,0.00
2013-10-13,52,52,52,-100,-100,-100,0,0,100,0.00,40.00,9,9,0,0.00
2013-10-14,57,57,57,-100,-100,-100,0,0,100,30.39,30.39,14,14,0,0.00
2013-10-15,62,60,58,-100,-100,-100,0,0,100,29.97,29.77,17,16,0,0.00
2013-10-16,49,49,49,-100,-100,-100,0,0,100,29.83,3.97,29,27,0,0.00
2013-10-17,47,46,45,-100,-100,-100,0,0,100,29.80,29.80,14,14,0,0.00
2013-10-18,45,45,44,-100,-100,-100,0,0,100,29.88,29.83,17,11,0,0.00
2013-10-19,51,42,48,-100,-100,-100,0,0,100,2.97,2.97,21,21,0,0.00
2013-10-20,45,45,45,-100,-100,-100,0,0,100,29.85,29.85,23,23,0,0.00
2013-10-21,48,46,44,-100,-100,-100,0,0,100,29.80,29.77,29,29,0,0.00
2013-10-22,37,36,35,-100,-100,-100,0,0,100,29.88,29.85,31,27,0,0.00
2013-10-23,36,36,35,-100,-100,-100,0,0,100,29.91,29.88,34,26,0,0.00
2013-10-24,42,40,39,-100,-100,-100,0,0,100,30.09,30.03,29,26,0,0.00
2013-10-25,45,45,45,-100,-100,-100,0,0,100,30.00,30.00,34,34,0,0.00
2013-10-26,44,44,44,-100,-100,-100,0,0,100,29.97,29.97,44,44,0,0.00
2013-10-29,43,40,38,-100,-100,-100,0,0,100,30.42,30.39,11,7,0,0.00
2013-10-30,45,43,41,-100,-100,-100,0,0,100,30.09,15.98,11,8,0,0.00
2013-11-1,43,42,42,-100,-100,-100,0,0,100,29.77,29.74,21,18,0,0.00
2013-11-2,37,37,37,-100,-100,-100,0,0,100,29.88,29.88,15,15,0,0.00
2013-11-3,39,39,39,-100,-100,-100,0,0,100,0.00,40.00,17,17,0,0.00
2013-11-4,48,48,48,-100,-100,-100,0,0,100,30.30,30.30,29,29,0,0.00
2013-11-5,46,46,46,-100,-100,-100,0,0,100,30.06,30.06,15,15,0,0.00
2013-11-6,38,38,38,-100,-100,-100,0,0,100,29.91,29.91,23,22,0,0.00
2013-11-7,37,37,37,-100,-100,-100,0,0,100,30.12,30.12,13,13,0,0.00
2013-11-8,40,38,37,-100,-100,-100,0,0,100,30.12,15.98,11,11,0,0.00
2013-11-9,50,41,39,-100,-100,-100,0,0,100,29.88,29.80,43,31,0,0.00
2013-11-10,41,41,41,-100,-100,-100,0,0,100,30.21,30.21,11,11,0,0.00
2013-11-11,38,30,26,-100,-100,-100,0,0,100,30.21,22.97,40,34,0,0.00
2013-11-12,34,28,23,-100,-100,-100,0,0,100,30.45,30.33,34,32,0,0.00
2013-11-14,42,40,39,-100,-100,-100,0,0,100,29.80,29.77,11,9,0,0.00
2013-11-15,41,41,41,-100,-100,-100,0,0,100,29.83,29.83,17,17,0,0.00
2013-11-16,45,19,45,-100,-100,-100,0,0,100,30.06,30.03,29,28,0,0.00
2013-11-23,19,17,15,-100,-100,-100,0,0,100,30.40,30.31,26,24,0,0.00
2013-11-24,25,20,23,23,-82,-100,0,0,100,30.43,30.41,40,26,0,0.00
2013-11-25,33,32,32,-100,-100,-100,0,0,100,29.99,29.96,39,30,0,0.00
2013-11-26,23,19,16,-100,-100,-100,0,0,100,30.00,29.99,44,38,0,0.00
2013-11-27,23,20,17,-100,-100,-100,0,0,100,30.23,30.12,23,18,0,0.00
2013-12-18,29,24,18,-100,-100,-100,0,0,100,29.91,29.71,24,18,0,0.00
2013-12-23,15,15,15,-100,-100,-100,0,0,100,0.00,40.00,18,18,0,0.00
2013-12-24,13,13,13,-100,-100,-100,0,0,100,30.30,30.30,26,26,0,0.00
2013-12-25,17,15,12,-100,-100,-100,0,0,100,30.03,29.94,25,24,0,0.00
2013-12-27,35,35,35,-100,-100,-100,0,0,100,29.85,29.85,17,17,0,0.00
2013-12-28,31,31,31,-100,-100,-100,0,0,100,29.91,29.91,5,5,0,0.00
2013-12-29,35,35,35,-100,-100,-100,0,0,100,29.74,29.74,17,17,0,0.00
2013-12-30,15,15,15,-100,-100,-100,0,0,100,30.12,30.12,13,13,0,0.00
2014-1-1,-5,-7,-10,-100,-100,-100,0,0,100,30.39,26.98,15,13,0,0.00